Time;durP1;ratioP1;P1;durP2;ratioP2;P2;SDS_P1;SDS_P2;PMS_P1;PMS_P2;Temp;Humidity;BMP_temperature;BMP_pressure;BME280_temperature;BME280_humidity;BME280_pressure;Samples;Min_cycle;Max_cycle;Signal;HPM_P1;HPM_P2
2022/04/25 00:01:41;;;;;;;5.85;5.03;;;8.60;99.90;;;;;;4191221;28;20396;-84
2022/04/25 00:03:44;;;;;;;7.95;7.63;;;8.60;99.90;;;;;;4183806;28;20036;-83
2022/04/25 00:05:46;;;;;;;7.50;7.03;;;8.70;99.90;;;;;;4187188;28;20493;-84
2022/04/25 00:07:48;;;;;;;9.05;8.25;;;8.60;99.90;;;;;;4168519;28;20077;-84
2022/04/25 00:09:51;;;;;;;6.72;6.30;;;8.60;99.90;;;;;;4182720;28;20032;-83
2022/04/25 00:11:53;;;;;;;7.50;7.10;;;8.60;99.90;;;;;;4162168;28;20045;-85
2022/04/25 00:13:56;;;;;;;21.75;7.40;;;8.60;99.90;;;;;;4193470;28;20044;-85
2022/04/25 00:15:59;;;;;;;4.20;3.90;;;8.60;99.90;;;;;;4193332;28;20108;-84
2022/04/25 00:18:02;;;;;;;5.05;2.78;;;8.60;99.90;;;;;;4160353;28;20045;-85
2022/04/25 00:20:08;;;;;;;3.25;2.08;;;8.70;99.90;;;;;;4178210;28;20398;-85
2022/04/25 00:22:11;;;;;;;2.10;2.00;;;8.60;99.90;;;;;;4173484;28;20125;-84
2022/04/25 00:24:13;;;;;;;2.58;2.22;;;8.60;99.90;;;;;;4193315;28;20064;-85
2022/04/25 00:26:15;;;;;;;2.13;2.13;;;8.60;99.90;;;;;;4176405;28;20479;-84
2022/04/25 00:28:19;;;;;;;2.78;2.10;;;8.60;99.90;;;;;;4175340;28;20052;-84
2022/04/25 00:30:21;;;;;;;2.70;2.42;;;8.60;99.90;;;;;;4174263;28;20068;-84
2022/04/25 00:32:23;;;;;;;5.75;2.75;;;8.60;99.90;;;;;;4194535;28;20037;-84
2022/04/25 00:34:26;;;;;;;5.40;2.65;;;8.60;99.90;;;;;;4178592;28;20120;-85
2022/04/25 00:36:29;;;;;;;3.63;2.15;;;8.60;99.90;;;;;;4177100;28;20033;-84
2022/04/25 00:38:31;;;;;;;3.35;2.42;;;8.60;99.90;;;;;;4188965;28;20090;-85
2022/04/25 00:40:33;;;;;;;3.05;2.90;;;8.60;99.90;;;;;;4174349;28;20053;-84
2022/04/25 00:42:36;;;;;;;1.92;1.80;;;8.70;99.90;;;;;;4176483;28;20064;-84
2022/04/25 00:44:41;;;;;;;3.78;3.58;;;8.60;99.90;;;;;;4169831;28;20092;-84
2022/04/25 00:46:47;;;;;;;4.22;2.38;;;8.70;99.90;;;;;;4168007;28;20068;-84
2022/04/25 00:48:51;;;;;;;2.55;2.35;;;8.60;99.90;;;;;;4193156;28;20131;-84
2022/04/25 00:50:54;;;;;;;4.07;2.22;;;8.60;99.90;;;;;;4177408;28;20049;-85
2022/04/25 00:52:56;;;;;;;5.55;2.90;;;8.60;99.90;;;;;;4194742;28;20834;-84
2022/04/25 00:55:01;;;;;;;2.50;2.20;;;8.60;99.90;;;;;;4177933;28;20129;-84
2022/04/25 00:57:03;;;;;;;3.35;2.50;;;8.60;99.90;;;;;;4193760;28;20033;-84
2022/04/25 00:59:06;;;;;;;6.03;2.47;;;8.60;99.90;;;;;;4195696;28;20056;-84
2022/04/25 01:01:08;;;;;;;4.63;2.80;;;8.60;99.90;;;;;;4178280;28;20064;-82
2022/04/25 01:03:13;;;;;;;5.47;2.15;;;8.70;99.90;;;;;;4161804;28;20048;-84
2022/04/25 01:05:15;;;;;;;2.17;1.90;;;8.70;99.90;;;;;;4177049;28;20055;-82
2022/04/25 01:07:17;;;;;;;1.95;1.83;;;8.70;99.90;;;;;;4195638;28;20051;-82
2022/04/25 01:09:20;;;;;;;4.85;1.77;;;8.70;99.90;;;;;;4178205;28;20037;-82
2022/04/25 01:11:24;;;;;;;7.75;2.10;;;8.70;99.90;;;;;;4177805;28;20135;-82
2022/04/25 01:13:26;;;;;;;2.97;1.52;;;8.70;99.90;;;;;;4182677;28;20036;-82
2022/04/25 01:15:30;;;;;;;3.20;1.85;;;8.70;99.90;;;;;;4195749;28;20037;-82
2022/04/25 01:17:33;;;;;;;7.47;2.30;;;8.80;99.90;;;;;;4164209;28;20037;-82
2022/04/25 01:19:35;;;;;;;4.55;1.63;;;8.70;99.90;;;;;;4194341;28;20124;-81
2022/04/25 01:21:50;;;;;;;3.08;2.10;;;8.70;99.90;;;;;;4168073;28;20807;-82
2022/04/25 01:28:34;;;;;;;3.22;1.90;;;8.70;99.90;;;;;;4189508;28;20059;-82
2022/04/25 01:30:37;;;;;;;6.38;3.08;;;8.70;99.90;;;;;;4186468;28;20120;-84
2022/04/25 01:32:40;;;;;;;6.72;1.58;;;8.70;99.90;;;;;;4194460;28;20119;-82
2022/04/25 01:34:43;;;;;;;2.75;1.80;;;8.70;99.90;;;;;;4195581;28;20480;-82
2022/04/25 01:36:44;;;;;;;3.50;2.15;;;8.70;99.90;;;;;;4195209;28;20120;-82
2022/04/25 01:38:46;;;;;;;4.07;1.55;;;8.70;99.90;;;;;;4195292;28;20123;-82
2022/04/25 01:40:49;;;;;;;6.70;2.10;;;8.70;99.90;;;;;;4195569;28;20094;-82
2022/04/25 01:42:51;;;;;;;3.53;1.65;;;8.70;99.90;;;;;;4158045;28;20064;-82
2022/04/25 01:44:53;;;;;;;3.40;1.90;;;8.70;99.90;;;;;;4152210;28;20568;-82
2022/04/25 01:46:56;;;;;;;6.63;3.13;;;8.70;99.90;;;;;;4178827;28;20048;-83
2022/04/25 01:48:58;;;;;;;2.95;1.88;;;8.70;99.90;;;;;;4177518;28;20480;-82
2022/04/25 01:51:02;;;;;;;5.38;2.80;;;8.70;99.90;;;;;;4178652;28;20048;-82
2022/04/25 01:53:04;;;;;;;3.05;1.70;;;8.70;99.90;;;;;;4178513;28;20033;-82
2022/04/25 01:55:06;;;;;;;5.60;1.70;;;8.70;99.90;;;;;;4144693;28;20066;-82
2022/04/25 01:57:09;;;;;;;5.00;1.80;;;8.70;99.90;;;;;;4178989;28;20124;-82
2022/04/25 01:59:12;;;;;;;3.58;1.65;;;8.70;99.90;;;;;;4159991;28;20037;-82
2022/04/25 02:01:16;;;;;;;1.35;1.35;;;8.70;99.90;;;;;;4170307;28;20133;-82
2022/04/25 02:03:19;;;;;;;2.40;1.60;;;8.70;99.90;;;;;;4144048;28;20049;-82
2022/04/25 02:05:21;;;;;;;1.85;1.75;;;8.70;99.90;;;;;;4181049;28;20041;-82
2022/04/25 02:07:23;;;;;;;3.83;2.47;;;8.70;99.90;;;;;;4161212;28;20048;-82
2022/04/25 02:09:25;;;;;;;1.25;1.25;;;8.70;99.90;;;;;;4163606;28;20140;-82
2022/04/25 02:11:27;;;;;;;2.47;2.10;;;8.70;99.90;;;;;;4177787;28;20459;-82
2022/04/25 02:13:29;;;;;;;4.15;2.10;;;8.70;99.90;;;;;;4180111;28;20147;-81
2022/04/25 02:15:31;;;;;;;4.63;1.92;;;8.70;99.90;;;;;;4178555;28;20033;-82
2022/04/25 02:17:33;;;;;;;3.88;2.10;;;8.70;99.90;;;;;;4163959;28;20084;-82
2022/04/25 02:19:38;;;;;;;4.68;1.95;;;8.70;99.90;;;;;;4156457;28;20460;-85
2022/04/25 02:21:41;;;;;;;4.82;1.65;;;8.70;99.90;;;;;;4163797;28;20088;-82
2022/04/25 02:23:44;;;;;;;4.38;2.53;;;8.70;99.90;;;;;;4154084;28;20045;-82
2022/04/25 02:25:46;;;;;;;4.10;2.45;;;8.70;99.90;;;;;;4178472;28;20053;-84
2022/04/25 02:27:48;;;;;;;3.75;1.52;;;8.70;99.90;;;;;;4160374;28;20136;-82
2022/04/25 02:29:53;;;;;;;1.83;1.33;;;8.70;99.90;;;;;;4160599;28;20060;-82
2022/04/25 02:31:59;;;;;;;1.92;1.58;;;8.80;99.90;;;;;;4162003;28;20073;-82
2022/04/25 02:34:01;;;;;;;2.53;1.50;;;8.70;99.90;;;;;;4160433;28;20037;-82
2022/04/25 02:36:04;;;;;;;4.72;1.95;;;8.70;99.90;;;;;;4159224;28;20087;-82
2022/04/25 02:38:06;;;;;;;1.83;1.60;;;8.70;99.90;;;;;;4160524;28;20045;-82
2022/04/25 02:40:09;;;;;;;2.80;1.40;;;8.70;99.90;;;;;;4158653;28;20041;-83
2022/04/25 02:42:11;;;;;;;2.40;1.75;;;8.70;99.90;;;;;;4160350;28;20099;-82
2022/04/25 02:44:14;;;;;;;2.17;1.40;;;8.70;99.90;;;;;;4160403;28;20140;-82
2022/04/25 02:46:17;;;;;;;4.78;1.42;;;8.70;99.90;;;;;;4161887;28;20136;-82
2022/04/25 02:48:19;;;;;;;2.08;1.98;;;8.70;99.90;;;;;;4178302;28;20074;-82
2022/04/25 02:50:21;;;;;;;2.13;1.98;;;8.70;99.90;;;;;;4161368;28;20077;-82
2022/04/25 02:52:23;;;;;;;1.85;1.85;;;8.70;99.90;;;;;;4177907;28;20069;-82
2022/04/25 02:54:25;;;;;;;3.65;1.88;;;8.70;99.90;;;;;;4179152;28;20068;-82
2022/04/25 02:56:28;;;;;;;2.38;1.95;;;8.70;99.90;;;;;;4177997;28;20709;-82
2022/04/25 02:58:31;;;;;;;4.78;1.60;;;8.70;99.90;;;;;;4149512;28;20042;-82
2022/04/25 03:00:33;;;;;;;2.95;1.70;;;8.70;99.90;;;;;;4177983;28;20067;-82
2022/04/25 03:02:35;;;;;;;6.65;1.90;;;8.70;99.90;;;;;;4179351;28;20132;-82
2022/04/25 03:04:38;;;;;;;3.65;1.63;;;8.70;99.90;;;;;;4161402;28;20404;-82
2022/04/25 03:06:40;;;;;;;5.95;1.88;;;8.70;99.90;;;;;;4174494;28;20992;-82
2022/04/25 03:08:42;;;;;;;5.57;1.63;;;8.70;99.90;;;;;;4155395;28;20068;-82
2022/04/25 03:10:45;;;;;;;3.22;1.80;;;8.70;99.90;;;;;;4177773;28;20472;-82
2022/04/25 03:12:47;;;;;;;2.75;1.63;;;8.70;99.90;;;;;;4176684;28;20045;-82
2022/04/25 03:14:49;;;;;;;3.28;2.85;;;8.70;99.90;;;;;;4144938;28;20520;-84
2022/04/25 03:16:52;;;;;;;4.50;1.92;;;8.70;99.90;;;;;;4166030;28;20076;-82
2022/04/25 03:18:54;;;;;;;8.88;1.80;;;8.70;99.90;;;;;;4161108;28;20499;-82
2022/04/25 03:20:59;;;;;;;2.30;2.10;;;8.70;99.90;;;;;;4161296;28;20132;-82
2022/04/25 03:23:02;;;;;;;1.67;1.58;;;8.60;99.90;;;;;;4176326;28;20091;-82
2022/04/25 03:25:04;;;;;;;1.50;1.27;;;8.70;99.90;;;;;;4176413;28;20037;-82
2022/04/25 03:27:06;;;;;;;5.18;2.10;;;8.70;99.90;;;;;;4177005;28;20072;-82
2022/04/25 03:29:10;;;;;;;5.25;1.33;;;8.70;99.90;;;;;;4176320;28;20049;-82
2022/04/25 03:31:12;;;;;;;4.05;1.90;;;8.70;99.90;;;;;;4161012;28;20042;-82
2022/04/25 03:33:16;;;;;;;2.72;1.63;;;8.60;99.90;;;;;;4160901;28;20048;-83
2022/04/25 03:35:22;;;;;;;3.50;1.20;;;8.60;99.90;;;;;;4178696;28;20555;-82
2022/04/25 03:37:26;;;;;;;2.17;1.30;;;8.60;99.90;;;;;;4177432;28;20033;-82
2022/04/25 03:39:29;;;;;;;4.22;1.88;;;8.70;99.90;;;;;;4161034;28;20061;-82
2022/04/25 03:41:31;;;;;;;2.03;1.92;;;8.70;99.90;;;;;;4164439;28;20144;-82
2022/04/25 03:43:36;;;;;;;;;;;8.60;99.90;;;;;;4193195;28;20529;-82
2022/04/25 03:45:41;;;;;;;1.90;1.33;;;8.70;99.90;;;;;;4194310;28;19959;-82
2022/04/25 03:47:44;;;;;;;1.42;1.30;;;8.70;99.90;;;;;;4162491;28;20041;-82
2022/04/25 03:49:48;;;;;;;3.13;1.65;;;8.70;99.90;;;;;;4193037;28;20047;-82
2022/04/25 03:51:50;;;;;;;3.60;1.80;;;8.70;99.90;;;;;;4174597;28;20041;-82
2022/04/25 03:53:52;;;;;;;5.95;1.80;;;8.70;99.90;;;;;;4155204;28;20064;-83
2022/04/25 03:58:16;;;;;;;3.70;1.73;;;8.60;99.90;;;;;;4175856;28;20064;-83
2022/04/25 04:00:19;;;;;;;1.95;1.40;;;8.70;99.90;;;;;;4178403;28;20036;-82
2022/04/25 04:02:21;;;;;;;2.45;1.80;;;8.60;99.90;;;;;;4178565;28;20559;-81
2022/04/25 04:04:24;;;;;;;4.30;1.58;;;8.60;99.90;;;;;;4160979;28;20073;-82
2022/04/25 04:06:26;;;;;;;1.73;1.67;;;8.70;99.90;;;;;;4165958;28;20575;-82
2022/04/25 04:08:28;;;;;;;2.63;1.67;;;8.60;99.90;;;;;;4195610;28;20040;-82
2022/04/25 04:10:30;;;;;;;3.25;1.50;;;8.70;99.90;;;;;;4162889;28;20029;-82
2022/04/25 04:12:34;;;;;;;1.50;1.40;;;8.70;99.90;;;;;;4187859;28;20053;-82
2022/04/25 04:14:36;;;;;;;4.65;1.85;;;8.70;99.90;;;;;;4192661;28;20550;-82
2022/04/25 04:16:39;;;;;;;3.85;1.95;;;8.70;99.90;;;;;;4185213;28;20072;-82
2022/04/25 04:18:42;;;;;;;2.35;1.92;;;8.70;99.90;;;;;;4157692;28;20066;-82
2022/04/25 04:20:44;;;;;;;2.00;1.90;;;8.70;99.90;;;;;;4196756;28;20044;-83
2022/04/25 04:22:47;;;;;;;6.32;1.83;;;8.70;99.90;;;;;;4178918;28;20123;-82
2022/04/25 04:24:49;;;;;;;4.93;2.05;;;8.60;99.90;;;;;;4195083;28;20037;-82
2022/04/25 04:26:52;;;;;;;7.25;2.20;;;8.60;99.90;;;;;;4195465;28;20055;-81
2022/04/25 04:28:56;;;;;;;5.00;2.00;;;8.60;99.90;;;;;;4179678;28;20120;-82
2022/04/25 04:30:59;;;;;;;2.17;1.40;;;8.60;99.90;;;;;;4178233;28;20539;-82
2022/04/25 04:33:01;;;;;;;1.70;1.40;;;8.60;99.90;;;;;;4178861;28;20064;-82
2022/04/25 04:35:07;;;;;;;3.88;1.50;;;8.60;99.90;;;;;;4161952;28;20140;-82
2022/04/25 04:37:09;;;;;;;2.28;2.10;;;8.60;99.90;;;;;;4178626;28;20037;-82
2022/04/25 04:39:12;;;;;;;3.47;1.88;;;8.60;99.90;;;;;;4162164;28;20061;-82
2022/04/25 04:41:14;;;;;;;2.35;1.52;;;8.60;99.90;;;;;;4160116;28;20080;-82
2022/04/25 04:43:16;;;;;;;1.77;1.30;;;8.60;99.90;;;;;;4196595;28;20651;-82
2022/04/25 04:45:19;;;;;;;2.90;1.77;;;8.60;99.90;;;;;;4196044;28;20072;-82
2022/04/25 04:47:22;;;;;;;1.90;1.70;;;8.60;99.90;;;;;;4168492;28;20041;-82
2022/04/25 04:49:24;;;;;;;5.30;2.15;;;8.60;99.90;;;;;;4178354;28;20051;-82
2022/04/25 04:51:27;;;;;;;2.42;1.63;;;8.60;99.90;;;;;;4183367;28;20087;-82
2022/04/25 04:53:29;;;;;;;3.00;2.35;;;8.60;99.90;;;;;;4157476;28;20483;-82
2022/04/25 04:55:36;;;;;;;2.80;1.55;;;8.60;99.90;;;;;;4177731;28;20048;-82
2022/04/25 04:57:40;;;;;;;2.72;2.50;;;8.60;99.90;;;;;;4195927;28;20059;-82
2022/04/25 04:59:42;;;;;;;3.85;1.50;;;8.60;99.90;;;;;;4190463;28;20033;-82
2022/04/25 05:01:44;;;;;;;3.10;1.50;;;8.70;99.90;;;;;;4178311;28;20053;-83
2022/04/25 05:03:48;;;;;;;2.65;1.48;;;8.70;99.90;;;;;;4161683;28;20045;-82
2022/04/25 05:05:50;;;;;;;6.38;1.55;;;8.70;99.90;;;;;;4178259;28;20108;-82
2022/04/25 05:07:52;;;;;;;7.15;1.92;;;8.70;99.90;;;;;;4186965;28;20036;-82
2022/04/25 05:09:55;;;;;;;2.10;1.98;;;8.70;99.90;;;;;;4195462;28;20064;-82
2022/04/25 05:12:02;;;;;;;2.50;1.73;;;8.70;99.90;;;;;;4168204;28;20072;-84
2022/04/25 05:14:09;;;;;;;1.70;1.45;;;8.70;99.90;;;;;;4177589;28;20036;-82
2022/04/25 05:16:12;;;;;;;1.70;1.70;;;8.70;99.90;;;;;;4186089;28;20095;-82
2022/04/25 05:18:15;;;;;;;2.97;1.40;;;8.80;99.90;;;;;;4177669;28;20041;-82
2022/04/25 05:20:19;;;;;;;3.17;1.60;;;8.80;99.90;;;;;;4159937;28;20131;-82
2022/04/25 05:22:21;;;;;;;4.53;1.85;;;8.80;99.90;;;;;;4194405;28;20033;-82
2022/04/25 05:24:23;;;;;;;4.50;2.03;;;8.80;99.90;;;;;;4180567;28;20099;-82
2022/04/25 05:26:25;;;;;;;2.70;1.60;;;8.80;99.90;;;;;;4194330;28;20043;-82
2022/04/25 05:28:29;;;;;;;1.65;1.65;;;8.80;99.90;;;;;;4176148;28;20087;-82
2022/04/25 05:30:31;;;;;;;2.65;1.73;;;8.80;99.90;;;;;;4194384;28;20036;-82
2022/04/25 05:32:46;;;;;;;4.60;1.60;;;8.80;99.90;;;;;;4176458;28;20095;-83
2022/04/25 05:34:48;;;;;;;5.22;1.63;;;8.80;99.90;;;;;;4185862;28;20520;-82
2022/04/25 05:36:51;;;;;;;6.00;2.50;;;8.80;99.90;;;;;;4195476;28;20033;-83
2022/04/25 05:38:53;;;;;;;2.75;1.88;;;8.80;99.90;;;;;;4177527;28;20041;-82
2022/04/25 05:40:55;;;;;;;3.17;2.90;;;8.80;99.90;;;;;;4195351;28;20048;-83
2022/04/25 05:43:02;;;;;;;1.60;1.60;;;8.80;99.90;;;;;;4176222;28;20080;-82
2022/04/25 05:45:05;;;;;;;3.05;2.55;;;8.80;99.90;;;;;;4163329;28;20073;-82
2022/04/25 05:47:07;;;;;;;3.17;2.42;;;8.90;99.90;;;;;;4144879;28;20081;-83
2022/04/25 05:53:52;;;;;;;3.60;2.22;;;8.90;99.90;;;;;;4195215;28;20036;-83
2022/04/25 05:55:54;;;;;;;3.78;3.53;;;8.90;99.90;;;;;;4177296;28;20671;-82
2022/04/25 05:57:56;;;;;;;10.48;2.05;;;9.00;99.90;;;;;;4160295;28;20068;-82
2022/04/25 06:00:02;;;;;;;4.32;1.77;;;9.00;99.90;;;;;;4177451;28;20122;-82
2022/04/25 06:02:07;;;;;;;1.80;1.70;;;8.90;99.90;;;;;;4193718;28;20104;-82
2022/04/25 06:04:09;;;;;;;4.45;1.88;;;9.00;99.90;;;;;;4170512;28;20092;-82
2022/04/25 06:06:11;;;;;;;1.42;1.33;;;9.00;99.90;;;;;;4164325;28;20045;-83
2022/04/25 06:08:13;;;;;;;1.80;1.50;;;9.00;99.90;;;;;;4183695;28;20044;-82
2022/04/25 06:10:17;;;;;;;3.75;2.88;;;9.00;99.90;;;;;;4161397;28;20065;-82
2022/04/25 06:12:19;;;;;;;2.40;1.98;;;9.00;99.90;;;;;;4177646;28;20065;-83
2022/04/25 06:14:21;;;;;;;2.15;1.90;;;9.00;99.90;;;;;;4196186;28;20029;-82
2022/04/25 06:16:24;;;;;;;5.72;1.85;;;9.00;99.90;;;;;;4182964;28;20087;-82
2022/04/25 06:18:26;;;;;;;1.90;1.80;;;9.00;99.90;;;;;;4181027;28;20041;-82
2022/04/25 06:20:30;;;;;;;;;;;9.00;99.90;;;;;;4173668;28;20037;-82
2022/04/25 06:22:33;;;;;;;2.58;2.30;;;9.00;99.90;;;;;;4178769;28;19921;-83
2022/04/25 06:24:36;;;;;;;2.55;2.08;;;9.00;99.90;;;;;;4194831;28;20751;-82
2022/04/25 06:26:39;;;;;;;3.45;2.10;;;9.00;99.90;;;;;;4192460;28;20098;-82
2022/04/25 06:28:41;;;;;;;4.38;2.10;;;9.10;99.90;;;;;;4177686;28;20040;-82
2022/04/25 06:30:43;;;;;;;;;;;9.10;99.90;;;;;;4195318;28;20036;-82
2022/04/25 06:32:46;;;;;;;4.63;1.60;;;9.10;99.90;;;;;;4184782;28;19921;-82
2022/04/25 06:34:50;;;;;;;4.15;1.77;;;9.10;99.90;;;;;;4165534;28;20061;-82
2022/04/25 06:36:52;;;;;;;2.75;1.48;;;9.10;99.90;;;;;;4160470;28;20049;-83
2022/04/25 06:38:55;;;;;;;1.70;1.63;;;9.20;99.90;;;;;;4179910;28;20033;-82
2022/04/25 06:40:57;;;;;;;2.75;1.40;;;9.20;99.90;;;;;;4167706;28;20066;-83
2022/04/25 06:43:00;;;;;;;3.45;2.53;;;9.20;99.90;;;;;;4176610;28;20060;-82
2022/04/25 06:45:03;;;;;;;5.60;2.70;;;9.20;99.90;;;;;;4192144;28;20062;-82
2022/04/25 06:47:05;;;;;;;6.97;2.03;;;9.30;99.90;;;;;;4176520;28;20208;-82
2022/04/25 06:49:23;;;;;;;3.70;1.80;;;9.30;99.90;;;;;;4171567;28;20072;-82
2022/04/25 06:51:27;;;;;;;3.83;2.40;;;9.30;99.90;;;;;;4175505;28;20040;-82
2022/04/25 06:53:30;;;;;;;2.03;1.85;;;9.30;99.90;;;;;;4191954;28;20775;-82
2022/04/25 06:55:33;;;;;;;2.90;2.10;;;9.30;99.90;;;;;;4192980;28;20389;-82
2022/04/25 06:57:36;;;;;;;1.52;1.52;;;9.30;99.90;;;;;;4174256;28;20496;-84
2022/04/25 06:59:39;;;;;;;4.55;2.10;;;9.30;99.90;;;;;;4168877;28;20102;-82
2022/04/25 07:01:42;;;;;;;3.15;2.45;;;9.40;99.90;;;;;;4164242;28;20057;-82
2022/04/25 07:03:45;;;;;;;5.63;2.50;;;9.40;99.90;;;;;;4162873;28;20064;-85
2022/04/25 07:05:52;;;;;;;2.80;1.77;;;9.40;99.90;;;;;;4175695;28;20131;-82
2022/04/25 07:07:54;;;;;;;1.98;1.80;;;9.40;99.90;;;;;;4184566;28;20416;-81
2022/04/25 07:09:57;;;;;;;5.72;3.13;;;9.50;99.90;;;;;;4192823;28;20041;-82
2022/04/25 07:12:01;;;;;;;1.95;1.85;;;9.60;99.90;;;;;;4174564;28;20075;-82
2022/04/25 07:14:04;;;;;;;4.07;2.50;;;9.60;99.90;;;;;;4193122;28;20028;-83
2022/04/25 07:16:07;;;;;;;6.47;1.80;;;9.80;99.90;;;;;;4193914;28;20059;-84
2022/04/25 07:18:10;;;;;;;4.55;1.80;;;9.80;99.90;;;;;;4164112;28;20041;-82
2022/04/25 07:20:12;;;;;;;1.55;1.55;;;9.90;99.90;;;;;;4180518;28;20559;-83
2022/04/25 07:29:17;;;;;;;3.90;1.60;;;9.90;99.90;;;;;;4182841;28;20045;-86
2022/04/25 07:31:20;;;;;;;2.42;2.20;;;9.90;99.90;;;;;;4174854;28;20095;-86
2022/04/25 07:33:22;;;;;;;;;;;10.00;99.90;;;;;;4176269;28;20033;-86
2022/04/25 07:35:24;;;;;;;2.78;1.40;;;10.00;99.90;;;;;;4193320;28;19928;-85
2022/04/25 07:37:26;;;;;;;5.43;1.92;;;10.10;99.90;;;;;;4177267;28;20061;-86
2022/04/25 07:39:28;;;;;;;6.13;2.35;;;10.10;99.90;;;;;;4175751;28;20041;-86
2022/04/25 07:41:31;;;;;;;2.55;1.92;;;10.20;99.90;;;;;;4191517;28;20056;-84
2022/04/25 07:43:34;;;;;;;1.92;1.70;;;10.20;99.90;;;;;;4191615;28;20493;-85
2022/04/25 07:45:36;;;;;;;5.47;2.40;;;10.20;99.90;;;;;;4194359;28;20060;-86
2022/04/25 07:47:42;;;;;;;1.75;1.65;;;10.20;99.90;;;;;;4184709;28;20055;-86
2022/04/25 07:49:44;;;;;;;5.43;1.50;;;10.20;99.90;;;;;;4178130;28;20033;-86
2022/04/25 07:51:49;;;;;;;3.75;2.30;;;10.20;99.90;;;;;;4178423;28;20040;-85
2022/04/25 07:53:52;;;;;;;1.80;1.70;;;10.30;99.90;;;;;;4196276;28;20036;-86
2022/04/25 07:55:55;;;;;;;1.42;1.40;;;10.30;99.90;;;;;;4195198;28;20064;-86
2022/04/25 07:57:58;;;;;;;2.78;1.95;;;10.30;99.90;;;;;;4174537;28;20067;-87
2022/04/25 08:00:00;;;;;;;2.15;2.03;;;10.40;99.90;;;;;;4195471;28;20044;-86
2022/04/25 08:02:03;;;;;;;2.03;1.92;;;10.40;99.90;;;;;;4194088;28;20090;-86
2022/04/25 08:04:05;;;;;;;2.20;2.00;;;10.40;99.90;;;;;;4194064;28;20051;-86
2022/04/25 08:06:07;;;;;;;1.80;1.80;;;10.40;99.90;;;;;;4178601;28;20037;-85
2022/04/25 08:08:11;;;;;;;2.33;1.80;;;10.50;99.90;;;;;;4196411;28;20494;-85
2022/04/25 08:10:16;;;;;;;3.25;1.65;;;10.50;99.90;;;;;;4196383;28;20457;-86
2022/04/25 08:19:21;;;;;;;1.70;1.35;;;10.50;99.90;;;;;;4178369;28;20048;-85
2022/04/25 08:21:24;;;;;;;4.90;1.90;;;10.50;99.90;;;;;;4192323;28;20098;-86
2022/04/25 08:23:27;;;;;;;6.00;1.60;;;10.50;99.90;;;;;;4194872;28;20587;-86
2022/04/25 08:25:30;;;;;;;2.38;2.17;;;10.60;99.90;;;;;;4179891;28;20064;-86
2022/04/25 08:27:32;;;;;;;1.77;1.67;;;10.50;99.90;;;;;;4196183;28;20028;-85
2022/04/25 08:29:34;;;;;;;1.63;1.38;;;10.60;99.90;;;;;;4177286;28;20507;-86
2022/04/25 08:31:38;;;;;;;1.65;1.42;;;10.50;99.90;;;;;;4154127;28;20026;-85
2022/04/25 08:33:43;;;;;;;2.35;1.90;;;10.50;99.90;;;;;;4178230;28;20048;-85
2022/04/25 08:35:46;;;;;;;2.22;1.67;;;10.50;99.90;;;;;;4193919;28;20064;-86
2022/04/25 08:37:48;;;;;;;6.57;2.03;;;10.40;99.90;;;;;;4161453;28;20046;-85
2022/04/25 08:39:50;;;;;;;2.65;1.80;;;10.50;99.90;;;;;;4191609;28;20083;-86
2022/04/25 08:42:00;;;;;;;4.53;2.08;;;10.40;99.90;;;;;;4176841;28;20600;-86
2022/04/25 08:44:04;;;;;;;1.83;1.45;;;10.50;99.90;;;;;;4172922;28;20476;-86
2022/04/25 08:46:09;;;;;;;3.53;2.45;;;10.40;99.90;;;;;;4174872;28;20091;-86
2022/04/25 08:48:13;;;;;;;6.15;3.08;;;10.50;99.90;;;;;;4176154;28;20090;-86
2022/04/25 08:50:19;;;;;;;1.60;1.30;;;10.50;99.90;;;;;;4175492;28;20505;-86
2022/04/25 08:52:23;;;;;;;2.60;2.40;;;10.40;99.90;;;;;;4175226;28;20079;-86
2022/04/25 08:54:29;;;;;;;2.33;2.22;;;10.40;99.90;;;;;;4175782;28;20105;-86
2022/04/25 08:56:32;;;;;;;3.15;3.00;;;10.50;99.90;;;;;;4195096;28;20036;-86
2022/04/25 08:58:40;;;;;;;4.22;2.25;;;10.40;99.90;;;;;;4194850;28;20040;-86
2022/04/25 09:00:43;;;;;;;5.18;2.83;;;10.40;99.90;;;;;;4192441;28;20045;-86
2022/04/25 09:02:50;;;;;;;2.95;2.85;;;10.50;99.90;;;;;;4178583;28;20452;-87
2022/04/25 09:04:54;;;;;;;3.85;1.83;;;10.40;99.90;;;;;;4160866;28;20092;-85
2022/04/25 09:06:56;;;;;;;4.03;2.60;;;10.40;99.90;;;;;;4190139;28;20072;-86
2022/04/25 09:08:58;;;;;;;3.72;1.83;;;10.40;99.90;;;;;;4161494;28;20506;-86
2022/04/25 09:13:21;;;;;;;3.35;3.00;;;10.40;99.90;;;;;;4184908;28;20127;-86
2022/04/25 09:15:24;;;;;;;3.55;2.83;;;10.40;99.90;;;;;;4188756;28;20124;-86
2022/04/25 09:17:28;;;;;;;3.47;2.95;;;10.40;99.90;;;;;;4177499;28;20501;-85
2022/04/25 09:19:32;;;;;;;2.70;2.50;;;10.40;99.90;;;;;;4176364;28;20409;-86
2022/04/25 09:21:41;;;;;;;2.60;2.40;;;10.50;99.90;;;;;;4195249;28;20044;-85
2022/04/25 09:23:43;;;;;;;5.25;2.70;;;10.60;99.90;;;;;;4193241;28;20041;-87
2022/04/25 09:26:07;;;;;;;3.90;3.58;;;10.60;99.90;;;;;;4168254;28;20084;-86
2022/04/25 09:28:13;;;;;;;2.38;2.28;;;10.60;99.90;;;;;;4193331;28;20042;-86
2022/04/25 09:30:23;;;;;;;5.15;3.33;;;10.70;99.90;;;;;;4192980;28;20040;-87
2022/04/25 09:32:32;;;;;;;4.65;4.35;;;10.80;99.90;;;;;;4188937;28;20090;-87
2022/04/25 09:36:58;;;;;;;2.72;2.53;;;10.90;99.90;;;;;;4193972;28;20110;-86
2022/04/25 09:39:00;;;;;;;5.35;4.18;;;10.90;99.90;;;;;;4176096;28;20139;-87
2022/04/25 09:41:04;;;;;;;3.28;2.92;;;10.90;99.90;;;;;;4151252;28;20046;-86
2022/04/25 09:43:08;;;;;;;5.13;2.80;;;10.90;99.90;;;;;;4168831;28;20061;-86
2022/04/25 09:45:11;;;;;;;4.72;3.03;;;11.10;99.90;;;;;;4143881;28;20045;-86
2022/04/25 09:47:25;;;;;;;4.20;2.97;;;11.10;99.90;;;;;;4177236;28;20072;-86
2022/04/25 09:49:28;;;;;;;5.32;4.10;;;11.10;99.90;;;;;;4161820;28;20038;-86
2022/04/25 09:51:31;;;;;;;3.88;3.65;;;11.10;99.90;;;;;;4145397;28;20053;-86
2022/04/25 09:53:42;;;;;;;3.17;2.83;;;11.20;99.90;;;;;;4143229;28;20104;-86
2022/04/25 09:55:44;;;;;;;5.90;5.40;;;11.30;99.90;;;;;;4173828;28;20036;-87
2022/04/25 09:57:48;;;;;;;4.30;2.08;;;11.30;99.90;;;;;;4159020;28;20501;-86
2022/04/25 09:59:51;;;;;;;2.97;2.72;;;11.20;99.90;;;;;;4136777;28;20371;-86
2022/04/25 10:02:07;;;;;;;4.78;3.17;;;11.20;99.90;;;;;;4175754;28;20049;-86
2022/04/25 10:04:32;;;;;;;3.42;3.22;;;11.20;99.90;;;;;;4174641;28;20048;-86
2022/04/25 10:06:35;;;;;;;5.55;2.55;;;11.30;99.90;;;;;;4158895;28;20037;-86
2022/04/25 10:08:38;;;;;;;6.57;2.88;;;11.20;99.90;;;;;;4158807;28;20446;-86
2022/04/25 10:10:57;;;;;;;3.75;3.00;;;11.30;99.90;;;;;;4143780;28;20129;-86
2022/04/25 10:13:00;;;;;;;6.05;3.45;;;11.30;99.90;;;;;;4160136;28;20041;-86
2022/04/25 10:15:04;;;;;;;5.93;2.95;;;11.30;99.90;;;;;;4162195;28;20041;-86
2022/04/25 10:17:07;;;;;;;3.72;2.95;;;11.40;99.90;;;;;;4171727;28;20033;-86
2022/04/25 10:19:09;;;;;;;4.30;4.00;;;11.50;99.90;;;;;;4142711;28;20046;-86
2022/04/25 10:21:14;;;;;;;3.35;2.35;;;11.60;99.90;;;;;;4175167;28;20340;-86
2022/04/25 10:23:17;;;;;;;3.50;2.30;;;11.70;99.90;;;;;;4159889;28;20057;-86
2022/04/25 10:25:19;;;;;;;5.38;4.88;;;11.70;99.90;;;;;;4158180;28;20041;-85
2022/04/25 10:27:27;;;;;;;8.23;3.70;;;11.80;99.90;;;;;;4157346;28;20072;-86
2022/04/25 10:29:37;;;;;;;3.45;3.10;;;11.90;99.90;;;;;;4158950;28;20559;-86
2022/04/25 10:31:43;;;;;;;2.58;2.53;;;12.10;99.90;;;;;;4142595;28;20038;-86
2022/04/25 10:33:54;;;;;;;2.88;2.67;;;12.10;99.90;;;;;;4163271;28;20124;-86
2022/04/25 10:35:57;;;;;;;2.40;2.25;;;12.20;99.90;;;;;;4177492;28;20041;-86
2022/04/25 10:37:59;;;;;;;9.82;4.20;;;12.40;99.90;;;;;;4149593;28;20077;-86
2022/04/25 10:40:13;;;;;;;2.58;2.40;;;12.60;99.90;;;;;;4163038;28;20049;-86
2022/04/25 10:44:35;;;;;;;2.75;2.50;;;12.70;99.90;;;;;;4156622;28;20037;-85
2022/04/25 10:47:05;;;;;;;7.65;4.97;;;12.80;99.90;;;;;;4159214;28;20053;-86
2022/04/25 10:49:10;;;;;;;5.03;4.65;;;12.90;99.90;;;;;;4159907;28;20049;-86
2022/04/25 10:51:18;;;;;;;6.38;4.18;;;12.90;99.90;;;;;;4160300;28;20603;-86
2022/04/25 10:54:02;;;;;;;2.00;1.90;;;13.00;99.90;;;;;;4172095;28;20091;-86
2022/04/25 10:56:09;;;;;;;2.22;1.75;;;13.00;99.90;;;;;;4174747;28;20068;-86
2022/04/25 10:58:15;;;;;;;1.98;1.60;;;13.00;99.90;;;;;;4161015;28;20060;-86
2022/04/25 11:00:36;;;;;;;3.63;3.40;;;13.20;99.90;;;;;;4176983;28;20041;-86
2022/04/25 11:02:38;;;;;;;2.20;2.10;;;13.40;99.90;;;;;;4159516;28;20045;-86
2022/04/25 11:04:40;;;;;;;2.22;2.13;;;13.60;99.90;;;;;;4158379;28;20046;-86
2022/04/25 11:06:42;;;;;;;2.65;2.45;;;13.70;99.90;;;;;;4160072;28;20583;-86
2022/04/25 11:08:51;;;;;;;5.40;5.07;;;13.90;99.90;;;;;;4143938;28;20145;-86
2022/04/25 11:11:03;;;;;;;4.07;3.22;;;14.00;99.90;;;;;;4174762;28;20045;-86
2022/04/25 11:13:07;;;;;;;7.07;6.35;;;14.10;99.90;;;;;;4146733;28;20478;-86
2022/04/25 11:15:09;;;;;;;4.25;4.00;;;14.20;99.90;;;;;;4157974;28;20077;-86
2022/04/25 11:17:13;;;;;;;2.38;1.38;;;14.20;99.90;;;;;;4160359;28;20072;-86
2022/04/25 11:19:42;;;;;;;1.70;1.60;;;14.10;99.90;;;;;;4165109;28;20041;-87
2022/04/25 11:21:55;;;;;;;4.95;2.28;;;14.20;99.90;;;;;;4127984;28;20046;-86
2022/04/25 11:23:59;;;;;;;1.95;1.35;;;14.10;99.90;;;;;;4178000;28;20076;-86
2022/04/25 11:26:05;;;;;;;2.17;1.65;;;14.10;99.90;;;;;;4160687;28;20060;-86